Time;durP1;ratioP1;P1;durP2;ratioP2;P2;SDS_P1;SDS_P2;PMS_P1;PMS_P2;Temp;Humidity;BMP_temperature;BMP_pressure;BME280_temperature;BME280_humidity;BME280_pressure;Samples;Min_cycle;Max_cycle;Signal;HPM_P1;HPM_P2
2022/07/15 00:02:02;;;;;;;2.90;2.22;;;;;;;21.82;48.86;94241.13;5049718;28;20274;-55
2022/07/15 00:04:46;;;;;;;3.28;2.15;;;;;;;21.96;48.65;94221.69;5046056;28;21017;-55
2022/07/15 00:07:30;;;;;;;8.68;2.45;;;;;;;21.73;48.71;94208.00;5052726;28;20559;-55
2022/07/15 00:10:14;;;;;;;3.17;2.20;;;;;;;21.70;49.14;94200.78;5050454;28;20260;-55
2022/07/15 00:13:01;;;;;;;3.97;2.28;;;;;;;21.60;49.82;94206.84;5047481;28;20233;-55
2022/07/15 00:15:45;;;;;;;5.72;2.53;;;;;;;21.56;50.90;94217.41;5048753;28;20713;-55
2022/07/15 00:18:29;;;;;;;4.15;2.20;;;;;;;21.63;50.56;94219.06;5050337;28;20204;-55
2022/07/15 00:21:13;;;;;;;3.80;2.50;;;;;;;21.54;51.79;94208.78;5049328;28;20691;-55
2022/07/15 00:23:57;;;;;;;4.40;2.35;;;;;;;21.37;51.05;94196.06;5051118;28;20671;-55
2022/07/15 00:26:41;;;;;;;7.82;2.30;;;;;;;21.13;53.46;94207.31;5045273;28;20192;-55
2022/07/15 00:29:25;;;;;;;4.35;2.20;;;;;;;20.93;55.06;94192.31;5045896;28;20205;-55
2022/07/15 00:32:09;;;;;;;3.78;2.40;;;;;;;21.10;54.74;94190.81;5050873;28;20201;-55
2022/07/15 00:34:53;;;;;;;4.97;2.73;;;;;;;21.13;55.21;94184.50;5045369;28;20197;-55
2022/07/15 00:37:37;;;;;;;9.17;2.40;;;;;;;20.96;55.62;94205.25;5046560;28;20213;-55
2022/07/15 00:40:21;;;;;;;7.72;2.70;;;;;;;21.24;53.73;94223.41;5050379;28;20674;-55
2022/07/15 00:43:05;;;;;;;10.40;2.50;;;;;;;21.30;53.26;94206.53;5048432;28;20248;-55
2022/07/15 00:45:49;;;;;;;6.27;2.30;;;;;;;21.10;54.51;94202.94;5061356;28;20232;-55
2022/07/15 00:48:33;;;;;;;7.22;2.60;;;;;;;20.96;54.08;94188.16;5045161;28;20278;-55
2022/07/15 00:51:17;;;;;;;2.40;2.20;;;;;;;20.90;53.55;94196.47;5044953;28;20205;-55
2022/07/15 00:54:02;;;;;;;3.80;2.45;;;;;;;20.76;53.50;94184.56;5042448;28;20225;-55
2022/07/15 00:56:49;;;;;;;3.42;2.55;;;;;;;20.97;53.39;94195.31;5050745;28;20213;-55
2022/07/15 00:59:34;;;;;;;2.43;2.20;;;;;;;20.91;53.19;94203.66;5047152;28;20312;-55
2022/07/15 01:02:20;;;;;;;3.50;2.43;;;;;;;20.99;52.63;94203.94;5049742;28;20785;-55
2022/07/15 01:05:06;;;;;;;6.80;2.30;;;;;;;20.27;53.87;94213.97;5049538;28;20214;-55
2022/07/15 01:07:51;;;;;;;3.90;2.50;;;;;;;20.73;53.53;94240.00;5050339;28;20221;-54
2022/07/15 01:10:36;;;;;;;12.80;3.50;;;;;;;20.58;55.92;94236.59;5048418;28;20197;-54
2022/07/15 01:13:21;;;;;;;7.13;4.17;;;;;;;19.85;61.30;94215.09;5052270;28;20764;-54
2022/07/15 01:16:05;;;;;;;8.37;3.90;;;;;;;19.61;62.96;94209.88;5051470;28;20205;-54
2022/07/15 01:18:50;;;;;;;9.63;4.13;;;;;;;19.31;63.17;94211.38;5048906;28;20197;-54
2022/07/15 01:21:35;;;;;;;7.63;3.50;;;;;;;19.42;63.62;94204.75;5048740;28;20752;-54
2022/07/15 01:24:19;;;;;;;7.60;4.00;;;;;;;18.98;66.53;94209.94;5053509;28;20198;-54
2022/07/15 01:27:05;;;;;;;7.00;4.10;;;;;;;18.64;70.06;94204.84;5054397;28;20197;-53
2022/07/15 01:29:49;;;;;;;6.53;3.83;;;;;;;18.31;70.91;94219.59;5053763;28;20216;-54
2022/07/15 01:32:33;;;;;;;8.23;3.97;;;;;;;18.51;70.38;94226.22;5048704;28;20745;-54
2022/07/15 01:35:18;;;;;;;5.67;3.70;;;;;;;18.31;69.79;94219.59;5052028;28;20229;-54
2022/07/15 01:38:04;;;;;;;5.77;3.90;;;;;;;18.50;71.81;94208.47;5051120;28;20201;-54
2022/07/15 01:40:48;;;;;;;5.40;3.87;;;;;;;18.54;71.71;94213.56;5051626;28;20240;-54
2022/07/15 01:43:32;;;;;;;8.37;4.30;;;;;;;18.42;72.51;94213.00;5042193;28;20665;-54
2022/07/15 01:46:17;;;;;;;5.27;4.07;;;;;;;18.55;72.57;94215.06;5061671;28;20678;-54
2022/07/15 01:52:39;;;;;;;6.60;3.73;;;;;;;18.17;72.19;94216.81;5039467;28;20225;-54
2022/07/15 01:55:23;;;;;;;6.37;4.10;;;;;;;18.22;73.80;94215.63;5048512;28;20753;-54
2022/07/15 01:58:07;;;;;;;8.37;4.37;;;;;;;18.33;72.43;94214.03;5053472;28;20700;-53
2022/07/15 02:00:51;;;;;;;6.83;4.50;;;;;;;18.38;72.84;94201.47;5047527;28;20620;-54
2022/07/15 02:03:36;;;;;;;5.53;4.23;;;;;;;18.42;71.02;94204.50;5051996;28;20595;-54
2022/07/15 02:06:22;;;;;;;7.10;4.63;;;;;;;18.32;70.93;94198.38;5047192;28;20240;-54
2022/07/15 02:09:07;;;;;;;6.40;4.27;;;;;;;18.48;70.01;94204.78;5048912;28;20197;-54
2022/07/15 02:11:56;;;;;;;5.30;3.80;;;;;;;18.47;70.52;94208.97;5052083;28;20210;-54
2022/07/15 02:14:43;;;;;;;8.57;4.57;;;;;;;18.50;70.25;94208.47;5047366;28;20198;-54
2022/07/15 02:17:27;;;;;;;5.73;3.97;;;;;;;18.35;72.64;94214.09;5052353;28;20324;-54
2022/07/15 02:20:11;;;;;;;7.23;4.63;;;;;;;18.45;73.63;94206.06;5051132;28;20276;-54
2022/07/15 02:22:57;;;;;;;7.10;4.60;;;;;;;18.36;76.71;94204.94;5050554;28;20248;-54
2022/07/15 02:25:41;;;;;;;5.90;4.10;;;;;;;18.59;75.83;94198.22;5051477;28;20320;-54
2022/07/15 02:28:26;;;;;;;9.93;4.57;;;;;;;18.78;73.44;94192.00;5044658;28;20239;-54
2022/07/15 02:31:11;;;;;;;6.70;4.10;;;;;;;18.58;70.64;94203.16;5049735;28;20201;-54
2022/07/15 02:33:56;;;;;;;12.80;4.30;;;;;;;18.62;69.97;94199.78;5057518;28;20221;-55
2022/07/15 02:36:44;;;;;;;8.20;4.47;;;;;;;18.68;71.50;94216.38;5046648;28;20256;-54
2022/07/15 02:39:28;;;;;;;7.80;4.60;;;;;;;18.59;73.01;94215.25;5048966;28;20261;-54
2022/07/15 02:42:15;;;;;;;5.37;4.10;;;;;;;18.59;72.75;94216.00;5051318;28;20735;-54
2022/07/15 02:44:59;;;;;;;5.77;4.40;;;;;;;18.71;72.05;94218.66;5050675;28;20205;-54
2022/07/15 02:47:44;;;;;;;4.73;3.80;;;;;;;18.68;65.94;94217.09;5051955;28;20639;-54
2022/07/15 02:50:30;;;;;;;4.77;3.43;;;;;;;18.41;67.12;94214.38;5046418;28;20196;-54
2022/07/15 02:53:15;;;;;;;4.60;3.23;;;;;;;18.62;66.36;94214.00;5047486;28;20272;-54
2022/07/15 02:56:01;;;;;;;5.90;3.80;;;;;;;18.48;67.66;94208.34;5046553;28;20197;-54
2022/07/15 02:58:45;;;;;;;6.10;3.40;;;;;;;18.22;66.87;94218.47;5051033;28;20790;-54
2022/07/15 03:01:30;;;;;;;7.07;3.70;;;;;;;18.38;66.81;94227.03;5041446;28;20577;-54
2022/07/15 03:04:17;;;;;;;8.70;4.00;;;;;;;18.24;67.69;94215.72;5048663;28;20313;-54
2022/07/15 03:07:01;;;;;;;12.33;3.80;;;;;;;18.27;68.27;94213.72;5051385;28;20619;-54
2022/07/15 03:09:45;;;;;;;8.47;4.00;;;;;;;18.21;66.21;94222.66;5046950;28;20209;-54
2022/07/15 03:12:31;;;;;;;13.60;3.40;;;;;;;18.13;66.52;94211.69;5048783;28;20283;-54
2022/07/15 03:15:17;;;;;;;7.73;3.70;;;;;;;18.20;67.09;94224.06;5046995;28;20205;-54
2022/07/15 03:18:01;;;;;;;7.13;3.67;;;;;;;18.32;68.30;94232.41;5051036;28;20690;-54
2022/07/15 03:20:46;;;;;;;6.63;3.40;;;;;;;18.23;66.78;94244.72;5049596;28;20213;-54
2022/07/15 03:23:30;;;;;;;7.93;4.10;;;;;;;18.38;68.07;94246.88;5045167;28;20225;-54
2022/07/15 03:26:14;;;;;;;9.40;3.77;;;;;;;18.50;70.34;94233.25;5050335;28;20582;-54
2022/07/15 03:29:00;;;;;;;5.27;3.80;;;;;;;18.38;69.87;94229.84;5045861;28;20286;-54
2022/07/15 03:31:45;;;;;;;4.90;3.40;;;;;;;18.52;68.12;94233.34;5045308;28;20213;-55
2022/07/15 03:34:34;;;;;;;7.30;3.83;;;;;;;18.46;72.95;94244.41;5049135;28;20229;-55
2022/07/15 03:37:19;;;;;;;8.53;3.77;;;;;;;18.47;73.80;94240.19;5050563;28;20236;-54
2022/07/15 03:40:06;;;;;;;5.07;4.10;;;;;;;18.56;73.31;94244.94;5049558;28;20723;-54
2022/07/15 03:42:51;;;;;;;9.03;4.10;;;;;;;18.54;74.10;94247.63;5049496;28;20209;-54
2022/07/15 03:45:35;;;;;;;7.47;4.03;;;;;;;18.63;73.55;94248.78;5050319;28;20209;-55
2022/07/15 03:48:19;;;;;;;6.60;4.30;;;;;;;18.65;73.23;94246.75;5052844;28;20285;-54
2022/07/15 03:51:03;;;;;;;5.27;3.87;;;;;;;18.70;72.90;94248.41;5045291;28;20631;-55
2022/07/15 03:53:47;;;;;;;11.10;3.93;;;;;;;18.79;73.12;94243.84;5048693;28;20225;-55
2022/07/15 03:56:34;;;;;;;9.63;4.47;;;;;;;18.81;72.77;94247.50;5050664;28;20208;-54
2022/07/15 03:59:20;;;;;;;6.30;4.20;;;;;;;18.71;73.00;94244.19;5048974;28;20209;-54
2022/07/15 04:02:04;;;;;;;6.80;3.97;;;;;;;18.68;72.92;94254.00;5051121;28;20741;-54
2022/07/15 04:04:48;;;;;;;9.03;3.73;;;;;;;18.65;70.91;94251.69;5047852;28;20229;-54
2022/07/15 04:07:32;;;;;;;9.20;4.13;;;;;;;18.62;72.88;94248.03;5043357;28;20204;-54
2022/07/15 04:10:16;;;;;;;7.50;3.67;;;;;;;18.66;72.72;94248.22;5049804;28;20252;-54
2022/07/15 04:13:01;;;;;;;6.60;3.80;;;;;;;18.48;69.48;94255.84;5049154;28;20620;-54
2022/07/15 04:15:46;;;;;;;8.67;4.17;;;;;;;18.54;73.13;94258.97;5048459;28;20206;-55
2022/07/15 04:18:30;;;;;;;4.93;3.70;;;;;;;18.64;72.71;94262.31;5052029;28;20259;-54
2022/07/15 04:21:14;;;;;;;6.10;3.90;;;;;;;18.75;73.17;94261.44;5049204;28;20205;-54
2022/07/15 04:23:59;;;;;;;8.83;3.80;;;;;;;18.89;71.21;94259.22;5048670;28;20209;-55
2022/07/15 04:26:43;;;;;;;7.17;3.60;;;;;;;18.55;66.68;94254.81;5045495;28;20213;-54
2022/07/15 04:29:27;;;;;;;3.77;2.83;;;;;;;18.92;68.71;94263.63;5048195;28;20708;-54
2022/07/15 04:32:11;;;;;;;9.27;3.33;;;;;;;18.78;64.83;94254.47;5049908;28;20202;-54
2022/07/15 04:34:58;;;;;;;6.80;3.63;;;;;;;18.80;65.43;94251.72;5048757;28;20255;-54
2022/07/15 04:37:43;;;;;;;8.33;3.20;;;;;;;18.84;65.43;94263.25;5048851;28;20921;-54
2022/07/15 04:40:27;;;;;;;5.03;3.27;;;;;;;18.76;64.42;94268.56;5048931;28;20209;-54
2022/07/15 04:43:11;;;;;;;7.83;3.40;;;;;;;18.77;63.77;94258.66;5047723;28;20256;-55
2022/07/15 04:45:55;;;;;;;4.57;2.97;;;;;;;18.53;65.32;94254.69;5054925;28;20248;-55
2022/07/15 04:51:42;;;;;;;8.57;3.47;;;;;;;19.01;66.75;94258.34;5052282;28;20269;-55
2022/07/15 04:54:27;;;;;;;6.53;3.47;;;;;;;19.48;66.11;94259.03;5052152;28;20252;-55
2022/07/15 04:57:13;;;;;;;5.43;3.43;;;;;;;19.58;64.89;94267.25;5054739;28;20249;-54
2022/07/15 04:59:58;;;;;;;8.13;3.50;;;;;;;19.86;64.02;94256.38;5053442;28;20197;-55
2022/07/15 05:02:42;;;;;;;8.50;3.50;;;;;;;19.67;64.29;94258.44;5049340;28;20197;-54
2022/07/15 05:05:26;;;;;;;5.27;3.07;;;;;;;19.44;65.31;94269.47;5052023;28;20285;-54
2022/07/15 05:08:10;;;;;;;8.47;3.37;;;;;;;19.87;63.64;94258.59;5055588;28;20269;-54
2022/07/15 05:11:03;;;;;;;10.53;3.60;;;;;;;20.03;64.03;94252.81;5051993;28;20567;-54
2022/07/15 05:13:47;;;;;;;5.27;3.13;;;;;;;20.23;63.13;94252.94;5048639;28;20923;-55
2022/07/15 05:16:31;;;;;;;8.53;3.40;;;;;;;20.23;62.88;94256.50;5050971;28;20204;-55
2022/07/15 05:19:15;;;;;;;6.53;3.50;;;;;;;19.90;62.94;94267.91;5051029;28;20690;-55
2022/07/15 05:22:00;;;;;;;5.57;3.30;;;;;;;20.06;62.51;94272.16;5049962;28;20255;-55
2022/07/15 05:24:47;;;;;;;10.27;3.80;;;;;;;20.33;61.12;94262.63;5051450;28;20208;-55
2022/07/15 05:27:32;;;;;;;7.37;3.37;;;;;;;20.37;61.01;94274.16;5048011;28;20229;-54
2022/07/15 05:30:17;;;;;;;6.53;3.57;;;;;;;20.66;59.42;94275.31;5040926;28;20206;-55
2022/07/15 05:33:01;;;;;;;4.60;3.10;;;;;;;21.24;58.62;94283.25;5041150;28;20898;-54
2022/07/15 05:35:45;;;;;;;6.03;2.90;;;;;;;20.93;56.20;94280.63;5044648;28;20617;-55
2022/07/15 05:38:29;;;;;;;6.63;3.33;;;;;;;20.87;58.37;94283.25;5051273;28;20572;-54
2022/07/15 05:41:14;;;;;;;4.27;2.77;;;;;;;20.70;57.63;94275.44;5045432;28;20192;-55
2022/07/15 05:43:59;;;;;;;24.17;3.63;;;;;;;20.63;56.41;94270.91;5042223;28;20237;-55
2022/07/15 05:46:43;;;;;;;5.77;2.60;;;;;;;20.83;57.52;94268.84;5047178;28;20208;-55
2022/07/15 05:49:29;;;;;;;4.57;2.70;;;;;;;20.41;57.33;94285.72;5043784;28;20213;-55
2022/07/15 05:52:14;;;;;;;4.33;2.80;;;;;;;19.86;58.37;94284.81;5041654;28;20205;-55
2022/07/15 05:55:00;;;;;;;4.23;2.57;;;;;;;20.58;58.08;94285.00;5047468;28;20197;-54
2022/07/15 05:57:45;;;;;;;7.90;3.53;;;;;;;20.14;58.80;94295.25;5043106;28;21216;-55
2022/07/15 06:00:29;;;;;;;7.10;3.00;;;;;;;19.73;60.22;94290.00;5042044;28;20286;-55
2022/07/15 06:03:13;;;;;;;7.73;3.20;;;;;;;19.86;60.52;94291.25;5052019;28;20229;-55
2022/07/15 06:06:00;;;;;;;5.60;3.07;;;;;;;20.08;60.03;94289.31;5049150;28;20209;-55
2022/07/15 06:08:44;;;;;;;4.80;2.90;;;;;;;19.74;60.71;94288.63;5049309;28;20721;-55
2022/07/15 06:11:29;;;;;;;9.87;3.17;;;;;;;20.38;59.60;94297.66;5049028;28;20294;-55
2022/07/15 06:14:14;;;;;;;6.03;3.27;;;;;;;20.87;57.82;94300.31;5050491;28;20709;-55
2022/07/15 06:16:59;;;;;;;7.30;3.00;;;;;;;20.35;58.15;94311.09;5053423;28;20209;-55
2022/07/15 06:19:43;;;;;;;6.77;3.47;;;;;;;21.16;57.22;94305.78;5051423;28;20209;-55
2022/07/15 06:22:27;;;;;;;8.77;2.93;;;;;;;21.26;55.62;94300.44;5049800;28;20216;-55
2022/07/15 06:25:12;;;;;;;6.70;3.23;;;;;;;21.75;55.08;94290.81;5051441;28;20268;-55
2022/07/15 06:27:56;;;;;;;11.37;3.17;;;;;;;21.56;54.11;94291.53;5052963;28;20201;-55
2022/07/15 06:30:40;;;;;;;7.00;2.87;;;;;;;21.02;56.40;94313.75;5040808;28;20210;-55
2022/07/15 06:33:25;;;;;;;11.37;3.43;;;;;;;21.37;54.99;94310.09;5051205;28;20212;-55
2022/07/15 06:36:09;;;;;;;5.50;3.00;;;;;;;21.72;54.43;94314.97;5052474;28;20209;-55
2022/07/15 06:38:53;;;;;;;6.73;3.60;;;;;;;22.73;52.54;94318.44;5050805;28;20206;-55
2022/07/15 06:41:38;;;;;;;9.67;2.83;;;;;;;22.97;50.84;94313.50;5052074;28;20320;-55
2022/07/15 06:44:22;;;;;;;7.73;3.00;;;;;;;22.50;52.56;94302.69;5032771;28;20210;-55
2022/07/15 06:47:13;;;;;;;7.72;3.38;;;;;;;22.24;51.87;94303.94;5053058;28;20205;-55
2022/07/15 06:49:58;;;;;;;6.25;2.95;;;;;;;22.70;52.31;94311.19;5050892;28;20628;-55
2022/07/15 06:52:44;;;;;;;8.80;2.90;;;;;;;23.28;50.85;94314.41;5039854;28;20802;-55
2022/07/15 06:55:28;;;;;;;4.78;2.83;;;;;;;22.92;51.39;94317.63;5039961;28;20686;-55
2022/07/15 06:58:12;;;;;;;7.78;3.13;;;;;;;23.24;51.80;94323.63;5045079;28;20244;-55
2022/07/15 07:00:56;;;;;;;5.82;3.10;;;;;;;22.92;50.69;94317.63;5043442;28;20229;-55
2022/07/15 07:03:40;;;;;;;5.97;3.38;;;;;;;23.66;49.57;94321.28;5047976;28;20801;-55
2022/07/15 07:06:26;;;;;;;10.52;3.20;;;;;;;23.94;48.12;94317.78;5048425;28;20194;-55
2022/07/15 07:09:10;;;;;;;7.05;3.28;;;;;;;23.87;48.85;94316.16;5046030;28;20288;-55
2022/07/15 07:11:54;;;;;;;4.65;3.13;;;;;;;24.44;48.12;94324.84;5051070;28;20268;-55
2022/07/15 07:14:38;;;;;;;5.15;2.45;;;;;;;24.71;46.48;94316.94;5042561;28;20296;-55
2022/07/15 07:17:22;;;;;;;6.20;3.28;;;;;;;24.80;46.16;94327.19;5049024;28;20197;-55
2022/07/15 07:20:06;;;;;;;6.10;2.72;;;;;;;25.10;46.37;94316.47;5039778;28;20245;-55
2022/07/15 07:22:50;;;;;;;3.72;2.55;;;;;;;24.90;46.55;94325.31;5044027;28;20679;-55
2022/07/15 07:25:34;;;;;;;5.65;3.28;;;;;;;24.90;47.35;94316.00;5045070;28;20206;-55
2022/07/15 07:28:19;;;;;;;4.75;3.00;;;;;;;25.21;46.02;94318.16;5048982;28;20205;-55
2022/07/15 07:31:03;;;;;;;7.22;3.30;;;;;;;24.36;47.41;94323.94;5051537;28;20198;-55
2022/07/15 07:33:47;;;;;;;5.80;3.20;;;;;;;24.80;47.37;94321.47;5043962;28;20272;-55
2022/07/15 07:36:31;;;;;;;7.38;2.97;;;;;;;24.80;46.50;94327.19;5039803;28;20593;-55
2022/07/15 07:39:15;;;;;;;8.35;3.60;;;;;;;24.64;48.29;94323.91;5044080;28;20201;-55
2022/07/15 07:41:59;;;;;;;8.05;3.72;;;;;;;23.93;48.60;94327.75;5044414;28;20206;-55
2022/07/15 07:44:43;;;;;;;6.90;3.08;;;;;;;23.83;49.93;94321.75;5050337;28;20259;-55
2022/07/15 07:47:28;;;;;;;5.03;2.90;;;;;;;23.68;50.47;94318.50;5049799;28;20293;-55
2022/07/15 07:50:12;;;;;;;9.40;3.47;;;;;;;23.06;51.21;94325.19;5049455;28;20201;-55
2022/07/15 07:52:55;;;;;;;6.55;3.80;;;;;;;23.51;49.44;94322.31;5042427;28;20702;-55
2022/07/15 07:55:39;;;;;;;6.60;3.92;;;;;;;23.25;49.59;94324.34;5041585;28;20685;-57
2022/07/15 07:58:25;;;;;;;5.93;3.75;;;;;;;23.89;48.99;94319.03;5046627;28;20207;-55
2022/07/15 08:01:09;;;;;;;6.88;2.97;;;;;;;23.55;49.69;94316.69;5046690;28;20272;-55
2022/07/15 08:03:55;;;;;;;6.25;3.78;;;;;;;23.47;50.40;94322.16;5049529;28;20213;-55
2022/07/15 08:06:40;;;;;;;5.82;3.63;;;;;;;24.15;48.82;94328.38;5049653;28;20224;-55
2022/07/15 08:09:24;;;;;;;4.53;3.28;;;;;;;24.57;48.07;94320.91;5040764;28;20229;-55
2022/07/15 08:12:09;;;;;;;5.60;3.00;;;;;;;24.79;48.05;94325.72;5037422;28;20274;-55
2022/07/15 08:14:54;;;;;;;4.63;3.13;;;;;;;24.83;46.33;94312.22;5038954;28;20206;-55
2022/07/15 08:17:40;;;;;;;8.70;3.67;;;;;;;25.27;46.35;94315.41;5048056;28;20221;-55
2022/07/15 08:20:24;;;;;;;10.07;3.70;;;;;;;25.65;45.15;94314.81;5047751;28;20592;-55
2022/07/15 08:23:08;;;;;;;10.13;3.50;;;;;;;25.92;44.87;94308.22;5044864;28;20192;-55
2022/07/15 08:25:53;;;;;;;7.57;3.80;;;;;;;26.15;44.21;94310.09;5045676;28;20202;-54
2022/07/15 08:28:38;;;;;;;5.68;3.22;;;;;;;26.52;43.98;94313.66;5047586;28;20205;-55
2022/07/15 08:31:23;;;;;;;7.00;3.85;;;;;;;26.68;43.19;94313.94;5045136;28;20196;-55
2022/07/15 08:34:08;;;;;;;5.72;2.88;;;;;;;27.11;41.79;94311.75;5047251;28;20268;-55
2022/07/15 08:36:51;;;;;;;7.63;3.55;;;;;;;27.48;41.43;94310.84;5046143;28;20205;-55
2022/07/15 08:39:38;;;;;;;4.90;2.70;;;;;;;28.07;38.83;94315.25;5042383;28;20298;-55
2022/07/15 08:42:23;;;;;;;7.80;3.42;;;;;;;28.06;39.73;94310.19;5045063;28;20220;-55
2022/07/15 08:45:08;;;;;;;9.07;3.63;;;;;;;28.58;38.61;94315.09;5042321;28;20754;-55
2022/07/15 08:47:52;;;;;;;5.32;3.10;;;;;;;28.30;39.46;94309.75;5046341;28;20213;-55
2022/07/15 08:50:37;;;;;;;8.40;3.65;;;;;;;27.84;39.12;94313.50;5046938;28;20244;-55
2022/07/15 08:53:21;;;;;;;10.02;3.40;;;;;;;27.39;41.64;94306.44;5037484;28;20789;-55
2022/07/15 08:56:05;;;;;;;9.05;3.00;;;;;;;27.73;41.37;94301.16;5049866;28;20225;-54
2022/07/15 08:58:50;;;;;;;6.28;3.00;;;;;;;27.76;39.63;94304.78;5049597;28;20255;-54
2022/07/15 09:01:42;;;;;;;5.55;3.28;;;;;;;26.97;41.12;94304.34;5043894;28;20213;-55
2022/07/15 09:04:26;;;;;;;6.72;3.25;;;;;;;27.09;41.05;94297.34;5039730;28;20256;-55
2022/07/15 09:07:11;;;;;;;5.13;3.15;;;;;;;27.66;40.38;94299.63;5038627;28;20198;-55
2022/07/15 09:09:55;;;;;;;10.23;3.63;;;;;;;27.60;41.35;94311.06;5039154;28;20564;-55
2022/07/15 09:12:42;;;;;;;8.63;3.05;;;;;;;27.90;39.67;94301.38;5050034;28;20237;-55
2022/07/15 09:15:34;;;;;;;7.28;2.50;;;;;;;27.91;39.67;94302.78;5046433;28;20205;-55
2022/07/15 09:18:20;;;;;;;4.88;3.17;;;;;;;28.05;39.49;94303.69;5048290;28;20221;-54
2022/07/15 09:21:15;;;;;;;5.15;2.72;;;;;;;27.95;39.08;94302.88;5044347;28;20206;-54
2022/07/15 09:24:17;;;;;;;5.10;2.55;;;;;;;27.54;39.39;94299.44;5037935;28;20239;-55
2022/07/15 09:27:22;;;;;;;5.97;2.60;;;;;;;26.59;41.44;94306.59;5045847;28;20271;-55
2022/07/15 09:33:36;;;;;;;6.47;3.20;;;;;;;25.27;42.33;94311.81;5050141;28;20276;-55
2022/07/15 09:36:25;;;;;;;6.10;3.10;;;;;;;25.90;43.59;94299.56;5043681;28;20965;-55
2022/07/15 09:39:09;;;;;;;5.07;2.97;;;;;;;25.39;42.88;94318.56;5047178;28;20236;-55
2022/07/15 09:41:53;;;;;;;8.43;3.42;;;;;;;24.78;44.96;94309.94;5045138;28;20197;-55
2022/07/15 09:44:37;;;;;;;5.70;2.78;;;;;;;25.84;42.53;94305.19;5047319;28;20206;-55
2022/07/15 09:47:24;;;;;;;7.10;3.20;;;;;;;26.28;41.66;94307.47;5046848;28;20248;-54
2022/07/15 09:50:09;;;;;;;5.60;3.10;;;;;;;26.67;39.75;94323.97;5047815;28;20212;-55
2022/07/15 09:52:53;;;;;;;5.53;2.90;;;;;;;26.78;40.75;94316.97;5046059;28;20284;-54
2022/07/15 09:55:37;;;;;;;4.90;2.83;;;;;;;25.21;42.42;94315.28;5045321;28;21524;-55
2022/07/15 09:58:21;;;;;;;7.43;3.13;;;;;;;25.06;42.51;94312.78;5045429;28;20567;-55
2022/07/15 10:01:07;;;;;;;8.63;3.13;;;;;;;25.23;42.93;94306.00;5048630;28;20233;-55
2022/07/15 10:03:53;;;;;;;8.65;3.20;;;;;;;26.15;41.98;94303.63;5045750;28;20233;-55
2022/07/15 10:06:38;;;;;;;9.23;3.25;;;;;;;25.90;40.47;94305.28;5045548;28;20209;-54
2022/07/15 10:09:24;;;;;;;5.47;3.20;;;;;;;24.77;42.58;94305.59;5046759;28;20200;-54
2022/07/15 10:12:12;;;;;;;4.32;2.65;;;;;;;24.86;43.77;94304.41;5044731;28;20282;-55
2022/07/15 10:15:33;;;;;;;6.07;3.22;;;;;;;25.20;42.44;94305.22;5047265;28;20259;-55
2022/07/15 10:18:51;;;;;;;4.63;2.60;;;;;;;25.68;41.31;94305.56;5044834;28;20259;-55
2022/07/15 10:21:59;;;;;;;8.02;2.65;;;;;;;26.44;40.60;94307.75;5048396;28;20198;-55
2022/07/15 10:25:12;;;;;;;5.93;2.90;;;;;;;26.50;37.30;94305.00;5039849;28;20201;-55
2022/07/15 10:28:24;;;;;;;3.88;2.55;;;;;;;26.75;37.35;94301.09;5046572;28;20357;-55
2022/07/15 10:31:16;;;;;;;5.53;2.90;;;;;;;26.06;35.91;94308.47;5046079;28;20206;-55
2022/07/15 10:34:03;;;;;;;4.50;2.80;;;;;;;25.72;35.37;94302.78;5029167;28;20241;-55
2022/07/15 10:36:47;;;;;;;4.10;2.20;;;;;;;26.25;36.75;94298.06;5048524;28;20205;-55
2022/07/15 10:39:51;;;;;;;8.35;2.72;;;;;;;26.56;34.49;94300.06;5047977;28;20209;-54
2022/07/15 10:42:58;;;;;;;9.48;2.40;;;;;;;26.78;34.90;94307.63;5045071;28;20245;-55
2022/07/15 10:46:02;;;;;;;5.13;2.90;;;;;;;27.19;35.07;94297.50;5050985;28;20205;-55
2022/07/15 10:49:00;;;;;;;4.88;2.30;;;;;;;27.35;34.27;94294.84;5044374;28;20240;-55
2022/07/15 10:51:45;;;;;;;9.88;2.63;;;;;;;27.44;34.73;94296.41;5041912;28;20217;-54
2022/07/15 10:54:32;;;;;;;5.22;2.78;;;;;;;26.68;35.24;94302.41;5047745;28;20232;-54
2022/07/15 10:57:20;;;;;;;4.30;2.50;;;;;;;26.90;35.68;94288.44;5052272;28;20209;-54
2022/07/15 11:00:04;;;;;;;6.47;2.80;;;;;;;27.36;33.66;94297.03;5052369;28;20248;-54
2022/07/15 11:03:02;;;;;;;6.25;1.85;;;;;;;27.66;33.76;94288.09;5048909;28;20220;-54
2022/07/15 11:06:00;;;;;;;8.25;2.90;;;;;;;27.89;34.12;94297.03;5043811;28;20815;-55
2022/07/15 11:08:44;;;;;;;3.92;2.20;;;;;;;28.09;34.03;94292.22;5046816;28;20686;-54
2022/07/15 11:11:29;;;;;;;6.45;2.10;;;;;;;27.56;34.22;94293.72;5046341;28;20224;-54
2022/07/15 11:14:43;;;;;;;5.40;2.95;;;;;;;27.70;32.79;94293.91;5045445;28;20234;-55
2022/07/15 11:17:33;;;;;;;5.72;2.58;;;;;;;27.11;33.60;94288.75;5049362;28;20204;-54
2022/07/15 11:20:23;;;;;;;6.55;2.72;;;;;;;27.37;33.76;94283.38;5047212;28;20686;-55
2022/07/15 11:23:08;;;;;;;6.43;2.90;;;;;;;27.17;32.98;94289.56;5044601;28;20260;-54
2022/07/15 11:25:51;;;;;;;4.95;2.97;;;;;;;26.11;34.58;94277.66;5038297;28;20218;-55
2022/07/15 11:28:36;;;;;;;5.57;2.50;;;;;;;26.08;36.68;94271.19;5045127;28;20256;-54
2022/07/15 11:31:21;;;;;;;6.57;2.50;;;;;;;27.26;35.67;94276.03;5049234;28;20324;-54
2022/07/15 11:34:05;;;;;;;5.63;2.47;;;;;;;27.57;33.75;94269.28;5048175;28;20279;-55
2022/07/15 11:36:59;;;;;;;7.20;2.63;;;;;;;26.67;35.28;94272.22;5049848;28;20189;-54
2022/07/15 11:39:43;;;;;;;9.18;2.90;;;;;;;27.94;34.56;94275.47;5043806;28;20276;-54
2022/07/15 11:45:36;;;;;;;5.40;2.28;;;;;;;27.68;33.83;94267.97;5045239;28;20221;-54
2022/07/15 11:48:20;;;;;;;5.95;2.75;;;;;;;28.31;32.52;94271.59;5042763;28;20259;-55
2022/07/15 11:51:08;;;;;;;10.27;2.50;;;;;;;28.50;33.28;94258.78;5046654;28;20271;-55
2022/07/15 11:53:52;;;;;;;4.82;2.35;;;;;;;28.79;32.30;94259.06;5045878;28;20261;-54
2022/07/15 11:56:36;;;;;;;4.43;2.83;;;;;;;28.64;32.17;94266.13;5049423;28;20212;-55
2022/07/15 11:59:20;;;;;;;9.52;2.88;;;;;;;27.83;33.67;94250.88;5043079;28;20212;-55
2022/07/15 12:02:08;;;;;;;5.47;2.45;;;;;;;28.03;33.18;94253.97;5048837;28;20636;-55
2022/07/15 12:05:02;;;;;;;5.50;2.53;;;;;;;27.61;32.96;94246.28;5046060;28;20210;-55
2022/07/15 12:07:47;;;;;;;8.13;2.90;;;;;;;27.14;33.62;94247.81;5048541;28;20228;-55
2022/07/15 12:10:37;;;;;;;4.72;2.40;;;;;;;26.77;33.55;94245.78;5043530;28;20201;-55
2022/07/15 12:13:21;;;;;;;7.50;2.20;;;;;;;27.83;34.35;94242.22;5043474;28;20264;-55
2022/07/15 12:16:06;;;;;;;5.35;2.30;;;;;;;28.45;33.74;94242.88;5047949;28;20205;-55
2022/07/15 12:18:52;;;;;;;5.10;2.45;;;;;;;28.98;32.78;94239.72;5054010;28;20379;-54
2022/07/15 12:21:37;;;;;;;4.22;2.20;;;;;;;28.53;32.98;94233.56;5046237;28;20233;-55
2022/07/15 12:24:41;;;;;;;3.53;2.33;;;;;;;29.22;32.94;94229.06;5043728;28;20248;-54
2022/07/15 12:27:36;;;;;;;3.65;2.00;;;;;;;29.24;31.38;94229.06;5050995;28;20196;-55
2022/07/15 12:30:30;;;;;;;5.57;2.22;;;;;;;28.16;32.02;94229.63;5050426;28;20674;-55
2022/07/15 12:33:22;;;;;;;3.85;2.13;;;;;;;28.35;32.46;94230.53;5041951;28;20225;-55
2022/07/15 12:36:19;;;;;;;9.70;2.65;;;;;;;28.20;33.55;94226.81;5049360;28;20248;-54
2022/07/15 12:39:13;;;;;;;4.80;2.35;;;;;;;27.61;33.06;94226.13;5048178;28;20621;-54
2022/07/15 12:42:03;;;;;;;3.85;2.10;;;;;;;28.22;31.95;94229.69;5049680;28;20201;-54
2022/07/15 12:45:05;;;;;;;8.45;2.33;;;;;;;28.67;32.04;94230.09;5043271;28;20193;-55
2022/07/15 12:48:06;;;;;;;5.03;2.30;;;;;;;28.84;31.95;94232.41;5046412;28;20297;-54
2022/07/15 12:50:50;;;;;;;6.90;2.60;;;;;;;28.98;31.03;94233.94;5046478;28;20205;-54
2022/07/15 12:53:38;;;;;;;3.92;2.30;;;;;;;28.03;32.39;94225.88;5041847;28;20265;-55
2022/07/15 12:56:22;;;;;;;3.17;2.22;;;;;;;28.03;32.96;94228.75;5047045;28;20645;-54
2022/07/15 12:59:06;;;;;;;2.90;2.05;;;;;;;28.28;31.77;94232.63;5048643;28;20244;-54
2022/07/15 13:02:04;;;;;;;3.53;2.25;;;;;;;28.25;31.75;94227.56;5050002;28;20196;-55
2022/07/15 13:04:49;;;;;;;5.75;2.08;;;;;;;28.40;32.13;94226.97;5047736;28;20221;-54
2022/07/15 13:07:33;;;;;;;3.70;2.40;;;;;;;28.56;31.79;94221.38;5049398;28;20201;-54
2022/07/15 13:10:18;;;;;;;5.50;2.28;;;;;;;28.40;32.16;94226.97;5052648;28;20200;-55
2022/07/15 13:13:03;;;;;;;6.07;2.22;;;;;;;28.65;31.24;94215.66;5052886;28;20309;-54
2022/07/15 13:15:47;;;;;;;2.97;2.10;;;;;;;28.81;31.21;94215.81;5051892;28;20277;-54
2022/07/15 13:18:33;;;;;;;5.88;2.53;;;;;;;28.32;31.32;94221.16;5042900;28;20247;-54